Barkald — V7IM6 — position and weather

sailwx.info

Track history (hours):
 
Tides and Currents Weather Stations Pressure Air Temp Water Temp Dewpoint Dewpoint Depression Visibility Wind Speed Wind Dir Waves Ship Positions

Barkald

Last reported at 2015-May-25 13:32 UTC. Time now 2015-May-25 13:35 UTC.
Position N 40°42' W 073°58'.

Length 189 m; draft 11.3 m.

MMSI: 538002409.

Date/timePositionNaut miles runAvg speedWind from/ knotsBaromVisibWave heightAir tempDewpointWater temp
2015-May-25 13:32N 40°42' W 073°58'0 0.0
2015-May-25 12:32N 40°42' W 073°58'0 0.0
2015-May-25 11:32N 40°42' W 073°58'0 0.0
2015-May-25 10:32N 40°42' W 073°58'0 0.0
2015-May-25 09:32N 40°42' W 073°58'0 0.0
2015-May-25 08:32N 40°42' W 073°58'0 0.0
2015-May-25 07:32N 40°42' W 073°58'0 0.0
2015-May-25 06:32N 40°42' W 073°58'0 0.0
2015-May-25 05:32N 40°42' W 073°58'0 0.0
2015-May-25 04:32N 40°42' W 073°58'0 0.0
2015-May-25 03:32N 40°42' W 073°58'0 0.0
2015-May-25 02:29N 40°42' W 073°58'0 0.0
2015-May-25 01:32N 40°42' W 073°58'0 0.0
2015-May-25 00:32N 40°42' W 073°58'0 0.0
2015-May-24 23:29N 40°42' W 073°58'0 0.0
2015-May-24 22:32N 40°42' W 073°58'0 0.0
2015-May-24 21:26N 40°42' W 073°58'0 0.0
2015-May-24 20:32N 40°42' W 073°58'0 0.5
2015-May-24 19:33N 40°42' W 073°59'4 4.0
2015-May-24 18:33N 40°40' W 074°03'8 8.3
2015-May-24 17:34N 40°32' W 074°01'10 9.9
2015-May-24 16:33N 40°27' W 073°49'10 9.7
2015-May-24 15:33N 40°28' W 073°36'10 9.9
2015-May-24 14:33N 40°29' W 073°23'10 9.7
2015-May-24 13:33N 40°30' W 073°10'10 9.9
2015-May-24 12:33N 40°30' W 072°57'1110.6
2015-May-24 11:33N 40°30' W 072°43'1110.7
2015-May-24 10:33N 40°31' W 072°29'1010.2
2015-May-24 09:33N 40°31' W 072°16'1211.8
2015-May-24 08:34N 40°31' W 072°00'1211.6
2015-May-24 07:33N 40°32' W 071°45'1211.8
2015-May-24 06:33N 40°32' W 071°30'1111.2
2015-May-24 05:33N 40°33' W 071°15'1211.9
2015-May-24 04:33N 40°33' W 070°59'1212.4
2015-May-24 03:33N 40°33' W 070°43'1212.4
2015-May-24 02:33N 40°33' W 070°26'1312.7
2015-May-24 01:33N 40°34' W 070°10'1312.6
2015-May-24 00:33N 40°34' W 069°53'1312.7
2015-May-23 23:33N 40°34' W 069°36'2712.4
2015-May-23 21:22N 40°38' W 069°01'  
2015-May-18 14:08N 43°16' W 062°52'25811.9
2015-May-17 16:23N 40°28' W 067°15'19613.9
2015-May-17 02:20N 39°17' W 071°13'1214.4
2015-May-17 01:30N 39°15' W 071°28'1914.8
2015-May-17 00:12N 39°11' W 071°52'1014.6
2015-May-16 23:32N 39°09' W 072°05'1515.0
2015-May-16 22:32N 39°06' W 072°24'1514.6
2015-May-16 21:31N 39°03' W 072°42'1414.1
2015-May-16 20:32N 39°00' W 072°60'1514.4
2015-May-16 19:29N 38°57' W 073°19'1414.4
2015-May-16 18:32N 38°54' W 073°36'1414.4
2015-May-16 17:33N 38°52' W 073°54'1714.6
2015-May-16 16:22N 38°48' W 074°16'1515.0
2015-May-16 15:22N 38°46' W 074°34'1315.4
2015-May-16 14:31N 38°46' W 074°51'1212.4
2015-May-16 13:34N 38°51' W 075°05'1313.5
2015-May-16 12:34N 39°04' W 075°10'1312.7
2015-May-16 11:33N 39°15' W 075°19'1312.8
2015-May-16 10:34N 39°24' W 075°30'1313.2
2015-May-16 09:33N 39°37' W 075°35'1212.5
2015-May-16 08:34N 39°48' W 075°27'1010.4
2015-May-16 07:33N 39°52' W 075°14'7 7.1
2015-May-16 06:34N 39°57' W 075°08'9 8.6
2015-May-16 05:34N 40°02' W 074°59'8 8.3
2015-May-16 04:34N 40°07' W 074°50'0 0.1
2015-May-16 03:30N 40°07' W 074°50'0 0.0
2015-May-16 02:33N 40°07' W 074°50'0 0.0
2015-May-16 01:33N 40°07' W 074°50'0 0.0
2015-May-16 00:33N 40°07' W 074°50'0 0.0
2015-May-15 23:33N 40°07' W 074°50'0 0.0
2015-May-15 22:21N 40°07' W 074°50'0 0.0
2015-May-15 21:33N 40°07' W 074°50'0 0.0
2015-May-15 20:09N 40°07' W 074°50'0 0.0
2015-May-15 19:30N 40°07' W 074°50'0 0.0
2015-May-15 17:30N 40°07' W 074°50'0 0.0
2015-May-15 16:27N 40°07' W 074°50'0 0.0
2015-May-15 15:27N 40°07' W 074°50'0 0.0
2015-May-15 14:33N 40°07' W 074°50'0 0.0
2015-May-15 13:33N 40°07' W 074°50'  
Track history (hours):
 
Tides and Currents Weather Stations Pressure Air Temp Water Temp Dewpoint Dewpoint Depression Visibility Wind Speed Wind Dir Waves Ship Positions

Barkald

Last reported at 2015-May-25 13:32 UTC. Time now 2015-May-25 13:35 UTC.
Position N 40°42' W 073°58'.

Length 189 m; draft 11.3 m.

MMSI: 538002409.

Date/timePositionNaut miles runAvg speedWind from/ knotsBaromVisibWave heightAir tempDewpointWater temp
2015-May-25 13:32N 40°42' W 073°58'0 0.0
2015-May-25 12:32N 40°42' W 073°58'0 0.0
2015-May-25 11:32N 40°42' W 073°58'0 0.0
2015-May-25 10:32N 40°42' W 073°58'0 0.0
2015-May-25 09:32N 40°42' W 073°58'0 0.0
2015-May-25 08:32N 40°42' W 073°58'0 0.0
2015-May-25 07:32N 40°42' W 073°58'0 0.0
2015-May-25 06:32N 40°42' W 073°58'0 0.0
2015-May-25 05:32N 40°42' W 073°58'0 0.0
2015-May-25 04:32N 40°42' W 073°58'0 0.0
2015-May-25 03:32N 40°42' W 073°58'0 0.0
2015-May-25 02:29N 40°42' W 073°58'0 0.0
2015-May-25 01:32N 40°42' W 073°58'0 0.0
2015-May-25 00:32N 40°42' W 073°58'0 0.0
2015-May-24 23:29N 40°42' W 073°58'0 0.0
2015-May-24 22:32N 40°42' W 073°58'0 0.0
2015-May-24 21:26N 40°42' W 073°58'0 0.0
2015-May-24 20:32N 40°42' W 073°58'0 0.5
2015-May-24 19:33N 40°42' W 073°59'4 4.0
2015-May-24 18:33N 40°40' W 074°03'8 8.3
2015-May-24 17:34N 40°32' W 074°01'10 9.9
2015-May-24 16:33N 40°27' W 073°49'10 9.7
2015-May-24 15:33N 40°28' W 073°36'10 9.9
2015-May-24 14:33N 40°29' W 073°23'10 9.7
2015-May-24 13:33N 40°30' W 073°10'10 9.9
2015-May-24 12:33N 40°30' W 072°57'1110.6
2015-May-24 11:33N 40°30' W 072°43'1110.7
2015-May-24 10:33N 40°31' W 072°29'1010.2
2015-May-24 09:33N 40°31' W 072°16'1211.8
2015-May-24 08:34N 40°31' W 072°00'1211.6
2015-May-24 07:33N 40°32' W 071°45'1211.8
2015-May-24 06:33N 40°32' W 071°30'1111.2
2015-May-24 05:33N 40°33' W 071°15'1211.9
2015-May-24 04:33N 40°33' W 070°59'1212.4
2015-May-24 03:33N 40°33' W 070°43'1212.4
2015-May-24 02:33N 40°33' W 070°26'1312.7
2015-May-24 01:33N 40°34' W 070°10'1312.6
2015-May-24 00:33N 40°34' W 069°53'1312.7
2015-May-23 23:33N 40°34' W 069°36'2712.4
2015-May-23 21:22N 40°38' W 069°01'  
2015-May-18 14:08N 43°16' W 062°52'25811.9
2015-May-17 16:23N 40°28' W 067°15'19613.9
2015-May-17 02:20N 39°17' W 071°13'1214.4
2015-May-17 01:30N 39°15' W 071°28'1914.8
2015-May-17 00:12N 39°11' W 071°52'1014.6
2015-May-16 23:32N 39°09' W 072°05'1515.0
2015-May-16 22:32N 39°06' W 072°24'1514.6
2015-May-16 21:31N 39°03' W 072°42'1414.1
2015-May-16 20:32N 39°00' W 072°60'1514.4
2015-May-16 19:29N 38°57' W 073°19'1414.4
2015-May-16 18:32N 38°54' W 073°36'1414.4
2015-May-16 17:33N 38°52' W 073°54'1714.6
2015-May-16 16:22N 38°48' W 074°16'1515.0
2015-May-16 15:22N 38°46' W 074°34'1315.4
2015-May-16 14:31N 38°46' W 074°51'1212.4
2015-May-16 13:34N 38°51' W 075°05'1313.5
2015-May-16 12:34N 39°04' W 075°10'1312.7
2015-May-16 11:33N 39°15' W 075°19'1312.8
2015-May-16 10:34N 39°24' W 075°30'1313.2
2015-May-16 09:33N 39°37' W 075°35'1212.5
2015-May-16 08:34N 39°48' W 075°27'1010.4
2015-May-16 07:33N 39°52' W 075°14'7 7.1
2015-May-16 06:34N 39°57' W 075°08'9 8.6
2015-May-16 05:34N 40°02' W 074°59'8 8.3
2015-May-16 04:34N 40°07' W 074°50'0 0.1
2015-May-16 03:30N 40°07' W 074°50'0 0.0
2015-May-16 02:33N 40°07' W 074°50'0 0.0
2015-May-16 01:33N 40°07' W 074°50'0 0.0
2015-May-16 00:33N 40°07' W 074°50'0 0.0
2015-May-15 23:33N 40°07' W 074°50'0 0.0
2015-May-15 22:21N 40°07' W 074°50'0 0.0
2015-May-15 21:33N 40°07' W 074°50'0 0.0
2015-May-15 20:09N 40°07' W 074°50'0 0.0
2015-May-15 19:30N 40°07' W 074°50'0 0.0
2015-May-15 17:30N 40°07' W 074°50'0 0.0
2015-May-15 16:27N 40°07' W 074°50'0 0.0
2015-May-15 15:27N 40°07' W 074°50'0 0.0
2015-May-15 14:33N 40°07' W 074°50'0 0.0
2015-May-15 13:33N 40°07' W 074°50'  

Dump ship's entire track history